sensor_id;sensor_type;location;lat;lon;timestamp;pressure;altitude;pressure_sealevel;temperature;humidity
11710;BME280;5911;51.036;6.972;2023-03-03T00:01:01;101358.69;;;4.96;98.30
11710;BME280;5911;51.036;6.972;2023-03-03T00:03:29;101360.53;;;4.94;97.45
11710;BME280;5911;51.036;6.972;2023-03-03T00:05:57;101359.59;;;4.95;98.14
11710;BME280;5911;51.036;6.972;2023-03-03T00:08:25;101344.28;;;4.87;97.59
11710;BME280;5911;51.036;6.972;2023-03-03T00:10:55;101357.25;;;4.89;97.58
11710;BME280;5911;51.036;6.972;2023-03-03T00:13:24;101348.81;;;4.84;98.23
11710;BME280;5911;51.036;6.972;2023-03-03T00:15:53;101358.28;;;4.86;98.32
11710;BME280;5911;51.036;6.972;2023-03-03T00:18:34;101362.59;;;4.87;99.30
11710;BME280;5911;51.036;6.972;2023-03-03T00:21:16;101362.72;;;4.84;99.29
11710;BME280;5911;51.036;6.972;2023-03-03T00:23:46;101356.72;;;4.82;98.42
11710;BME280;5911;51.036;6.972;2023-03-03T00:26:20;101340.81;;;4.68;98.55
11710;BME280;5911;51.036;6.972;2023-03-03T00:28:50;101359.47;;;4.79;99.36
11710;BME280;5911;51.036;6.972;2023-03-03T00:31:21;101366.38;;;4.80;99.24
11710;BME280;5911;51.036;6.972;2023-03-03T00:33:53;101362.22;;;4.76;99.02
11710;BME280;5911;51.036;6.972;2023-03-03T00:36:27;101373.50;;;4.77;98.97
11710;BME280;5911;51.036;6.972;2023-03-03T00:39:12;101368.41;;;4.74;98.97
11710;BME280;5911;51.036;6.972;2023-03-03T00:41:45;101372.81;;;4.73;98.56
11710;BME280;5911;51.036;6.972;2023-03-03T00:44:40;101368.78;;;4.66;99.18
11710;BME280;5911;51.036;6.972;2023-03-03T00:47:25;101373.16;;;4.66;99.15
11710;BME280;5911;51.036;6.972;2023-03-03T00:50:29;101379.16;;;4.68;99.26
11710;BME280;5911;51.036;6.972;2023-03-03T00:53:05;101380.34;;;4.60;99.29
11710;BME280;5911;51.036;6.972;2023-03-03T00:55:34;101377.03;;;4.57;99.86
11710;BME280;5911;51.036;6.972;2023-03-03T00:58:03;101381.47;;;4.55;99.93
11710;BME280;5911;51.036;6.972;2023-03-03T01:00:36;101379.91;;;4.51;99.94
11710;BME280;5911;51.036;6.972;2023-03-03T01:03:08;101375.47;;;4.53;100.00
11710;BME280;5911;51.036;6.972;2023-03-03T01:05:37;101381.75;;;4.49;100.00
11710;BME280;5911;51.036;6.972;2023-03-03T01:08:05;101372.50;;;4.42;100.00
11710;BME280;5911;51.036;6.972;2023-03-03T01:10:35;101383.50;;;4.48;100.00
11710;BME280;5911;51.036;6.972;2023-03-03T01:13:06;101377.56;;;4.45;100.00
11710;BME280;5911;51.036;6.972;2023-03-03T01:15:35;101388.41;;;4.36;99.92
11710;BME280;5911;51.036;6.972;2023-03-03T01:18:03;101388.28;;;4.39;100.00
11710;BME280;5911;51.036;6.972;2023-03-03T01:20:31;101385.63;;;4.40;100.00
11710;BME280;5911;51.036;6.972;2023-03-03T01:22:58;101387.38;;;4.40;100.00
11710;BME280;5911;51.036;6.972;2023-03-03T01:25:26;101398.72;;;4.39;100.00
11710;BME280;5911;51.036;6.972;2023-03-03T01:27:54;101392.72;;;4.37;100.00
11710;BME280;5911;51.036;6.972;2023-03-03T01:30:24;101384.16;;;4.33;100.00
11710;BME280;5911;51.036;6.972;2023-03-03T01:32:52;101383.31;;;4.33;100.00
11710;BME280;5911;51.036;6.972;2023-03-03T01:35:20;101393.03;;;4.29;100.00
11710;BME280;5911;51.036;6.972;2023-03-03T01:37:48;101388.81;;;4.27;100.00
11710;BME280;5911;51.036;6.972;2023-03-03T01:40:19;101402.78;;;4.26;100.00
11710;BME280;5911;51.036;6.972;2023-03-03T01:42:52;101391.50;;;4.25;100.00
11710;BME280;5911;51.036;6.972;2023-03-03T01:45:22;101380.34;;;4.21;100.00
11710;BME280;5911;51.036;6.972;2023-03-03T01:47:55;101388.94;;;4.23;100.00
11710;BME280;5911;51.036;6.972;2023-03-03T01:50:31;101396.72;;;4.25;100.00
11710;BME280;5911;51.036;6.972;2023-03-03T01:53:03;101394.31;;;4.20;100.00
11710;BME280;5911;51.036;6.972;2023-03-03T01:55:34;101385.69;;;4.18;100.00
11710;BME280;5911;51.036;6.972;2023-03-03T01:58:06;101394.41;;;4.17;100.00
11710;BME280;5911;51.036;6.972;2023-03-03T02:00:37;101387.50;;;4.16;100.00
11710;BME280;5911;51.036;6.972;2023-03-03T02:03:07;101404.00;;;4.17;100.00
11710;BME280;5911;51.036;6.972;2023-03-03T02:05:37;101400.56;;;4.16;100.00
11710;BME280;5911;51.036;6.972;2023-03-03T02:08:08;101408.50;;;4.13;100.00
11710;BME280;5911;51.036;6.972;2023-03-03T02:10:39;101408.50;;;4.13;100.00
11710;BME280;5911;51.036;6.972;2023-03-03T02:13:07;101399.94;;;4.11;100.00
11710;BME280;5911;51.036;6.972;2023-03-03T02:15:35;101394.16;;;4.03;100.00
11710;BME280;5911;51.036;6.972;2023-03-03T02:18:04;101398.47;;;4.04;100.00
11710;BME280;5911;51.036;6.972;2023-03-03T02:20:44;101394.03;;;4.06;100.00
11710;BME280;5911;51.036;6.972;2023-03-03T02:23:20;101389.13;;;3.99;100.00
11710;BME280;5911;51.036;6.972;2023-03-03T02:26:06;101400.28;;;4.02;100.00
11710;BME280;5911;51.036;6.972;2023-03-03T02:28:36;101395.78;;;4.06;100.00
11710;BME280;5911;51.036;6.972;2023-03-03T02:31:08;101400.28;;;4.02;100.00
11710;BME280;5911;51.036;6.972;2023-03-03T02:33:40;101401.88;;;4.06;100.00
11710;BME280;5911;51.036;6.972;2023-03-03T02:36:11;101395.84;;;4.04;100.00
11710;BME280;5911;51.036;6.972;2023-03-03T02:38:45;101394.81;;;4.08;100.00
11710;BME280;5911;51.036;6.972;2023-03-03T02:41:23;101404.22;;;4.12;100.00
11710;BME280;5911;51.036;6.972;2023-03-03T02:43:58;101404.94;;;4.16;100.00
11710;BME280;5911;51.036;6.972;2023-03-03T02:46:28;101411.84;;;4.17;100.00
11710;BME280;5911;51.036;6.972;2023-03-03T02:48:59;101415.19;;;4.20;100.00
11710;BME280;5911;51.036;6.972;2023-03-03T02:51:27;101411.53;;;4.24;100.00
11710;BME280;5911;51.036;6.972;2023-03-03T02:53:55;101412.50;;;4.22;100.00
11710;BME280;5911;51.036;6.972;2023-03-03T02:56:26;101418.53;;;4.24;100.00
11710;BME280;5911;51.036;6.972;2023-03-03T02:58:54;101417.78;;;4.20;100.00
11710;BME280;5911;51.036;6.972;2023-03-03T03:01:22;101407.22;;;4.23;100.00
11710;BME280;5911;51.036;6.972;2023-03-03T03:03:52;101409.84;;;4.23;100.00
11710;BME280;5911;51.036;6.972;2023-03-03T03:06:22;101413.25;;;4.26;100.00
11710;BME280;5911;51.036;6.972;2023-03-03T03:08:50;101413.09;;;4.29;100.00
11710;BME280;5911;51.036;6.972;2023-03-03T03:11:19;101408.59;;;4.32;100.00
11710;BME280;5911;51.036;6.972;2023-03-03T03:13:48;101409.56;;;4.30;100.00
11710;BME280;5911;51.036;6.972;2023-03-03T03:16:17;101407.78;;;4.30;100.00
11710;BME280;5911;51.036;6.972;2023-03-03T03:18:45;101411.47;;;4.26;100.00
11710;BME280;5911;51.036;6.972;2023-03-03T03:21:14;101411.53;;;4.24;100.00
11710;BME280;5911;51.036;6.972;2023-03-03T03:23:42;101410.81;;;4.21;100.00
11710;BME280;5911;51.036;6.972;2023-03-03T03:26:11;101408.66;;;4.10;100.00
11710;BME280;5911;51.036;6.972;2023-03-03T03:28:39;101414.47;;;4.17;100.00
11710;BME280;5911;51.036;6.972;2023-03-03T03:31:09;101421.56;;;4.13;100.00
11710;BME280;5911;51.036;6.972;2023-03-03T03:33:37;101432.94;;;4.12;100.00
11710;BME280;5911;51.036;6.972;2023-03-03T03:36:06;101436.59;;;4.08;100.00
11710;BME280;5911;51.036;6.972;2023-03-03T03:38:35;101445.16;;;4.12;100.00
11710;BME280;5911;51.036;6.972;2023-03-03T03:41:05;101438.94;;;4.14;100.00
11710;BME280;5911;51.036;6.972;2023-03-03T03:43:34;101420.38;;;4.00;100.00
11710;BME280;5911;51.036;6.972;2023-03-03T03:46:02;101435.00;;;4.04;100.00
11710;BME280;5911;51.036;6.972;2023-03-03T03:48:32;101435.81;;;4.06;100.00
11710;BME280;5911;51.036;6.972;2023-03-03T03:51:02;101426.28;;;4.05;100.00
11710;BME280;5911;51.036;6.972;2023-03-03T03:53:32;101421.72;;;4.10;100.00
11710;BME280;5911;51.036;6.972;2023-03-03T03:56:00;101429.66;;;4.07;100.00
11710;BME280;5911;51.036;6.972;2023-03-03T03:58:28;101424.63;;;4.03;100.00
11710;BME280;5911;51.036;6.972;2023-03-03T04:01:03;101432.59;;;4.00;100.00
11710;BME280;5911;51.036;6.972;2023-03-03T04:03:34;101435.06;;;4.03;100.00
11710;BME280;5911;51.036;6.972;2023-03-03T04:06:06;101430.81;;;4.00;100.00
11710;BME280;5911;51.036;6.972;2023-03-03T04:08:34;101425.66;;;3.99;100.00
11710;BME280;5911;51.036;6.972;2023-03-03T04:11:02;101440.34;;;4.01;100.00
11710;BME280;5911;51.036;6.972;2023-03-03T04:13:31;101425.47;;;4.03;100.00
11710;BME280;5911;51.036;6.972;2023-03-03T04:16:02;101429.97;;;4.00;100.00
11710;BME280;5911;51.036;6.972;2023-03-03T04:18:30;101432.59;;;4.00;100.00
11710;BME280;5911;51.036;6.972;2023-03-03T04:20:59;101442.31;;;3.96;100.00
11710;BME280;5911;51.036;6.972;2023-03-03T04:23:27;101442.16;;;3.99;100.00
11710;BME280;5911;51.036;6.972;2023-03-03T04:25:55;101444.66;;;4.02;100.00
11710;BME280;5911;51.036;6.972;2023-03-03T04:28:23;101434.22;;;4.02;100.00
11710;BME280;5911;51.036;6.972;2023-03-03T04:30:52;101437.38;;;4.10;100.00
11710;BME280;5911;51.036;6.972;2023-03-03T04:33:21;101443.63;;;4.06;100.00
11710;BME280;5911;51.036;6.972;2023-03-03T04:35:49;101447.75;;;4.12;100.00
11710;BME280;5911;51.036;6.972;2023-03-03T04:38:19;101440.34;;;4.01;100.00
11710;BME280;5911;51.036;6.972;2023-03-03T04:40:48;101454.81;;;4.10;100.00
11710;BME280;5911;51.036;6.972;2023-03-03T04:43:17;101450.28;;;4.13;100.00
11710;BME280;5911;51.036;6.972;2023-03-03T04:45:45;101457.03;;;4.19;100.00
11710;BME280;5911;51.036;6.972;2023-03-03T04:48:15;101454.22;;;4.23;100.00
11710;BME280;5911;51.036;6.972;2023-03-03T04:50:43;101456.97;;;4.20;100.00
11710;BME280;5911;51.036;6.972;2023-03-03T04:53:11;101467.28;;;4.23;100.00
11710;BME280;5911;51.036;6.972;2023-03-03T04:55:42;101462.91;;;4.24;100.00
11710;BME280;5911;51.036;6.972;2023-03-03T04:58:10;101465.53;;;4.24;100.00
11710;BME280;5911;51.036;6.972;2023-03-03T05:00:39;101461.22;;;4.23;100.00
11710;BME280;5911;51.036;6.972;2023-03-03T05:03:10;101465.41;;;4.27;100.00
11710;BME280;5911;51.036;6.972;2023-03-03T05:05:40;101461.28;;;4.21;100.00
11710;BME280;5911;51.036;6.972;2023-03-03T05:08:08;101467.22;;;4.25;100.00
11710;BME280;5911;51.036;6.972;2023-03-03T05:10:36;101451.84;;;4.17;100.00
11710;BME280;5911;51.036;6.972;2023-03-03T05:13:05;101478.38;;;4.29;100.00
11710;BME280;5911;51.036;6.972;2023-03-03T05:15:33;101475.91;;;4.26;100.00
11710;BME280;5911;51.036;6.972;2023-03-03T05:18:01;101473.28;;;4.26;100.00
11710;BME280;5911;51.036;6.972;2023-03-03T05:20:29;101478.38;;;4.29;100.00
11710;BME280;5911;51.036;6.972;2023-03-03T05:22:57;101478.31;;;4.30;100.00
11710;BME280;5911;51.036;6.972;2023-03-03T05:25:27;101478.38;;;4.29;100.00
11710;BME280;5911;51.036;6.972;2023-03-03T05:27:54;101478.38;;;4.29;100.00
11710;BME280;5911;51.036;6.972;2023-03-03T05:30:24;101485.50;;;4.25;100.00
11710;BME280;5911;51.036;6.972;2023-03-03T05:32:51;101484.38;;;4.31;100.00
11710;BME280;5911;51.036;6.972;2023-03-03T05:35:19;101491.25;;;4.33;100.00
11710;BME280;5911;51.036;6.972;2023-03-03T05:37:47;101481.69;;;4.32;100.00
11710;BME280;5911;51.036;6.972;2023-03-03T05:40:15;101491.25;;;4.33;100.00
11710;BME280;5911;51.036;6.972;2023-03-03T05:42:43;101485.09;;;4.34;100.00
11710;BME280;5911;51.036;6.972;2023-03-03T05:45:11;101485.16;;;4.33;100.00
11710;BME280;5911;51.036;6.972;2023-03-03T05:47:40;101489.47;;;4.34;100.00
11710;BME280;5911;51.036;6.972;2023-03-03T05:50:09;101478.19;;;4.33;100.00
11710;BME280;5911;51.036;6.972;2023-03-03T05:52:37;101481.69;;;4.32;100.00
11710;BME280;5911;51.036;6.972;2023-03-03T05:55:06;101473.81;;;4.34;100.00
11710;BME280;5911;51.036;6.972;2023-03-03T05:57:34;101482.31;;;4.39;100.00
11710;BME280;5911;51.036;6.972;2023-03-03T06:00:02;101490.16;;;4.39;100.00
11710;BME280;5911;51.036;6.972;2023-03-03T06:02:37;101496.28;;;4.38;100.00
11710;BME280;5911;51.036;6.972;2023-03-03T06:05:08;101499.91;;;4.34;100.00
11710;BME280;5911;51.036;6.972;2023-03-03T06:07:37;101497.31;;;4.34;100.00
11710;BME280;5911;51.036;6.972;2023-03-03T06:10:06;101490.31;;;4.34;100.00
11710;BME280;5911;51.036;6.972;2023-03-03T06:12:36;101493.66;;;4.38;100.00
11710;BME280;5911;51.036;6.972;2023-03-03T06:15:06;101484.13;;;4.37;100.00
11710;BME280;5911;51.036;6.972;2023-03-03T06:17:34;101494.47;;;4.40;100.00
11710;BME280;5911;51.036;6.972;2023-03-03T06:20:02;101499.81;;;4.37;100.00
11710;BME280;5911;51.036;6.972;2023-03-03T06:22:32;101493.13;;;4.30;100.00
11710;BME280;5911;51.036;6.972;2023-03-03T06:24:59;101512.00;;;4.36;100.00
11710;BME280;5911;51.036;6.972;2023-03-03T06:27:27;101509.53;;;4.33;100.00
11710;BME280;5911;51.036;6.972;2023-03-03T06:29:55;101506.13;;;4.31;100.00
11710;BME280;5911;51.036;6.972;2023-03-03T06:32:24;101520.81;;;4.34;100.00
11710;BME280;5911;51.036;6.972;2023-03-03T06:34:51;101516.44;;;4.34;100.00
11710;BME280;5911;51.036;6.972;2023-03-03T06:37:19;101523.13;;;4.41;100.00
11710;BME280;5911;51.036;6.972;2023-03-03T06:39:48;101526.66;;;4.40;100.00
11710;BME280;5911;51.036;6.972;2023-03-03T06:42:18;101533.69;;;4.38;100.00
11710;BME280;5911;51.036;6.972;2023-03-03T06:44:46;101532.06;;;4.36;100.00
11710;BME280;5911;51.036;6.972;2023-03-03T06:47:14;101541.34;;;4.43;100.00
11710;BME280;5911;51.036;6.972;2023-03-03T06:49:42;101549.31;;;4.40;100.00
11710;BME280;5911;51.036;6.972;2023-03-03T06:52:11;101551.06;;;4.39;100.00
11710;BME280;5911;51.036;6.972;2023-03-03T06:54:40;101558.69;;;4.44;100.00
11710;BME280;5911;51.036;6.972;2023-03-03T06:57:16;101552.88;;;4.37;100.00
11710;BME280;5911;51.036;6.972;2023-03-03T06:59:46;101569.88;;;4.47;100.00
11710;BME280;5911;51.036;6.972;2023-03-03T07:02:16;101564.53;;;4.50;100.00
11710;BME280;5911;51.036;6.972;2023-03-03T07:04:45;101562.09;;;4.46;100.00
11710;BME280;5911;51.036;6.972;2023-03-03T07:07:16;101571.00;;;4.42;100.00
11710;BME280;5911;51.036;6.972;2023-03-03T07:09:47;101569.13;;;4.44;100.00
11710;BME280;5911;51.036;6.972;2023-03-03T07:12:18;101571.56;;;4.48;100.00
11710;BME280;5911;51.036;6.972;2023-03-03T07:14:49;101572.53;;;4.46;100.00
11710;BME280;5911;51.036;6.972;2023-03-03T07:17:24;101574.25;;;4.47;100.00
11710;BME280;5911;51.036;6.972;2023-03-03T07:19:52;101588.09;;;4.49;100.00
11710;BME280;5911;51.036;6.972;2023-03-03T07:22:24;101573.38;;;4.46;100.00
11710;BME280;5911;51.036;6.972;2023-03-03T07:24:58;101578.56;;;4.48;100.00
11710;BME280;5911;51.036;6.972;2023-03-03T07:27:30;101581.97;;;4.50;100.00
11710;BME280;5911;51.036;6.972;2023-03-03T07:30:15;101578.50;;;4.49;100.00
11710;BME280;5911;51.036;6.972;2023-03-03T07:32:45;101587.84;;;4.55;100.00
11710;BME280;5911;51.036;6.972;2023-03-03T07:35:28;101589.56;;;4.56;100.00
11710;BME280;5911;51.036;6.972;2023-03-03T07:38:00;101591.31;;;4.55;100.00
11710;BME280;5911;51.036;6.972;2023-03-03T07:40:34;101585.25;;;4.55;100.00
11710;BME280;5911;51.036;6.972;2023-03-03T07:43:28;101582.63;;;4.55;100.00
11710;BME280;5911;51.036;6.972;2023-03-03T07:46:02;101598.78;;;4.65;100.00
11710;BME280;5911;51.036;6.972;2023-03-03T07:48:41;101601.31;;;4.66;100.00
11710;BME280;5911;51.036;6.972;2023-03-03T07:51:19;101571.44;;;4.51;100.00
11710;BME280;5911;51.036;6.972;2023-03-03T07:53:48;101575.16;;;4.46;100.00
11710;BME280;5911;51.036;6.972;2023-03-03T07:56:26;101615.19;;;4.68;100.00
11710;BME280;5911;51.036;6.972;2023-03-03T07:58:57;101604.97;;;4.62;99.74
11710;BME280;5911;51.036;6.972;2023-03-03T08:01:36;101603.75;;;4.71;100.00
11710;BME280;5911;51.036;6.972;2023-03-03T08:04:21;101607.22;;;4.71;100.00
11710;BME280;5911;51.036;6.972;2023-03-03T08:06:51;101614.91;;;4.74;100.00
11710;BME280;5911;51.036;6.972;2023-03-03T08:12:28;101610.91;;;4.87;100.00
11710;BME280;5911;51.036;6.972;2023-03-03T08:18:01;101616.25;;;4.84;98.94
11710;BME280;5911;51.036;6.972;2023-03-03T08:20:45;101616.13;;;4.87;99.33
11710;BME280;5911;51.036;6.972;2023-03-03T08:23:15;101630.22;;;4.83;98.87
11710;BME280;5911;51.036;6.972;2023-03-03T08:25:43;101625.00;;;4.83;98.64
11710;BME280;5911;51.036;6.972;2023-03-03T08:28:11;101628.28;;;4.88;98.70
11710;BME280;5911;51.036;6.972;2023-03-03T08:30:42;101623.06;;;4.88;98.41
11710;BME280;5911;51.036;6.972;2023-03-03T08:33:10;101621.19;;;4.90;98.22
11710;BME280;5911;51.036;6.972;2023-03-03T08:35:38;101625.09;;;5.02;99.01
11710;BME280;5911;51.036;6.972;2023-03-03T08:38:07;101648.56;;;5.04;97.50
11710;BME280;5911;51.036;6.972;2023-03-03T08:40:35;101574.53;;;4.61;97.21
11710;BME280;5911;51.036;6.972;2023-03-03T08:43:03;101646.19;;;4.98;96.58
11710;BME280;5911;51.036;6.972;2023-03-03T08:45:32;101657.16;;;5.06;97.53
11710;BME280;5911;51.036;6.972;2023-03-03T08:48:02;101631.28;;;5.00;97.08
11710;BME280;5911;51.036;6.972;2023-03-03T08:50:31;101648.34;;;5.08;97.16
11710;BME280;5911;51.036;6.972;2023-03-03T08:52:59;101646.44;;;5.12;96.74
11710;BME280;5911;51.036;6.972;2023-03-03T08:55:28;101661.75;;;5.21;97.48
11710;BME280;5911;51.036;6.972;2023-03-03T08:57:55;101644.50;;;5.17;97.29
11710;BME280;5911;51.036;6.972;2023-03-03T09:00:23;101663.44;;;5.22;96.82
11710;BME280;5911;51.036;6.972;2023-03-03T09:02:52;101663.19;;;5.28;96.32
11710;BME280;5911;51.036;6.972;2023-03-03T09:05:23;101657.84;;;5.31;96.66
11710;BME280;5911;51.036;6.972;2023-03-03T09:07:51;101661.44;;;5.28;96.20
11710;BME280;5911;51.036;6.972;2023-03-03T09:10:21;101663.78;;;5.35;96.39
11710;BME280;5911;51.036;6.972;2023-03-03T09:12:53;101661.94;;;5.37;95.00
11710;BME280;5911;51.036;6.972;2023-03-03T09:15:25;101660.16;;;5.37;95.78
11710;BME280;5911;51.036;6.972;2023-03-03T09:17:57;101658.41;;;5.38;95.17
11710;BME280;5911;51.036;6.972;2023-03-03T09:20:34;101665.28;;;5.40;94.75
11710;BME280;5911;51.036;6.972;2023-03-03T09:23:27;101672.16;;;5.43;94.45
11710;BME280;5911;51.036;6.972;2023-03-03T09:25:56;101671.97;;;5.47;95.15
11710;BME280;5911;51.036;6.972;2023-03-03T09:28:26;101671.97;;;5.47;93.88
11710;BME280;5911;51.036;6.972;2023-03-03T09:30:56;101686.47;;;5.54;93.75
11710;BME280;5911;51.036;6.972;2023-03-03T09:33:27;101676.78;;;5.56;94.11
11710;BME280;5911;51.036;6.972;2023-03-03T09:36:04;101682.66;;;5.61;94.18
11710;BME280;5911;51.036;6.972;2023-03-03T09:38:41;101679.13;;;5.62;94.51
11710;BME280;5911;51.036;6.972;2023-03-03T09:41:38;101685.78;;;5.70;93.91
11710;BME280;5911;51.036;6.972;2023-03-03T09:44:20;101685.66;;;5.73;94.60
11710;BME280;5911;51.036;6.972;2023-03-03T09:47:02;101671.91;;;5.68;94.43
11710;BME280;5911;51.036;6.972;2023-03-03T09:49:34;101696.00;;;5.76;92.86
11710;BME280;5911;51.036;6.972;2023-03-03T09:52:10;101700.09;;;5.81;92.80
11710;BME280;5911;51.036;6.972;2023-03-03T09:54:52;101697.56;;;5.80;92.25
11710;BME280;5911;51.036;6.972;2023-03-03T09:57:24;101706.03;;;5.85;92.87
11710;BME280;5911;51.036;6.972;2023-03-03T10:00:09;101689.06;;;5.75;92.63
11710;BME280;5911;51.036;6.972;2023-03-03T10:02:51;101699.84;;;5.87;93.04
11710;BME280;5911;51.036;6.972;2023-03-03T10:05:30;101699.59;;;5.93;93.86
11710;BME280;5911;51.036;6.972;2023-03-03T10:08:11;101692.53;;;5.95;93.42
11710;BME280;5911;51.036;6.972;2023-03-03T10:10:52;101702.00;;;5.98;93.17
11710;BME280;5911;51.036;6.972;2023-03-03T10:13:32;101699.31;;;5.99;92.46
11710;BME280;5911;51.036;6.972;2023-03-03T10:16:28;101684.88;;;5.91;92.23
11710;BME280;5911;51.036;6.972;2023-03-03T10:19:02;101691.03;;;5.90;92.39
11710;BME280;5911;51.036;6.972;2023-03-03T10:21:35;101692.44;;;5.97;91.48
11710;BME280;5911;51.036;6.972;2023-03-03T10:24:15;101698.31;;;6.02;91.09
11710;BME280;5911;51.036;6.972;2023-03-03T10:26:59;101698.97;;;6.07;91.86
11710;BME280;5911;51.036;6.972;2023-03-03T10:29:45;101695.22;;;6.13;92.07
11710;BME280;5911;51.036;6.972;2023-03-03T10:32:28;101707.19;;;6.18;90.08
11710;BME280;5911;51.036;6.972;2023-03-03T10:35:13;101700.88;;;6.22;90.03
11710;BME280;5911;51.036;6.972;2023-03-03T10:37:50;101692.97;;;6.24;89.57
11710;BME280;5911;51.036;6.972;2023-03-03T10:40:28;101696.19;;;6.29;89.94
11710;BME280;5911;51.036;6.972;2023-03-03T10:43:15;101698.88;;;6.27;88.75
11710;BME280;5911;51.036;6.972;2023-03-03T10:46:15;101684.88;;;6.28;89.79
11710;BME280;5911;51.036;6.972;2023-03-03T10:51:54;101705.41;;;6.38;88.75
11710;BME280;5911;51.036;6.972;2023-03-03T10:54:43;101702.22;;;6.31;87.98
11710;BME280;5911;51.036;6.972;2023-03-03T10:57:21;101703.84;;;6.33;88.52
11710;BME280;5911;51.036;6.972;2023-03-03T11:00:04;101698.47;;;6.37;89.99
11710;BME280;5911;51.036;6.972;2023-03-03T11:02:39;101714.97;;;6.39;89.81
11710;BME280;5911;51.036;6.972;2023-03-03T11:05:20;101715.78;;;6.41;90.08
11710;BME280;5911;51.036;6.972;2023-03-03T11:07:55;101713.16;;;6.41;89.62
11710;BME280;5911;51.036;6.972;2023-03-03T11:10:32;101719.25;;;6.41;88.51
11710;BME280;5911;51.036;6.972;2023-03-03T11:13:08;101699.59;;;6.31;90.35
11710;BME280;5911;51.036;6.972;2023-03-03T11:16:04;101711.06;;;6.47;89.23
11710;BME280;5911;51.036;6.972;2023-03-03T11:18:51;101726.28;;;6.58;89.74
11710;BME280;5911;51.036;6.972;2023-03-03T11:21:28;101719.44;;;6.55;87.34
11710;BME280;5911;51.036;6.972;2023-03-03T11:24:09;101706.09;;;6.60;85.29
11710;BME280;5911;51.036;6.972;2023-03-03T11:26:52;101707.66;;;6.64;86.53
11710;BME280;5911;51.036;6.972;2023-03-03T11:29:36;101705.03;;;6.64;85.61
11710;BME280;5911;51.036;6.972;2023-03-03T11:32:19;101706.53;;;6.69;85.43
11710;BME280;5911;51.036;6.972;2023-03-03T11:34:55;101707.19;;;6.73;85.42
11710;BME280;5911;51.036;6.972;2023-03-03T11:37:30;101706.78;;;6.82;85.83
11710;BME280;5911;51.036;6.972;2023-03-03T11:40:11;101703.69;;;6.91;84.48
11710;BME280;5911;51.036;6.972;2023-03-03T11:42:47;101700.03;;;7.13;83.44
11710;BME280;5911;51.036;6.972;2023-03-03T11:45:23;101713.59;;;7.21;82.98
11710;BME280;5911;51.036;6.972;2023-03-03T11:47:58;101700.81;;;7.15;81.44
11710;BME280;5911;51.036;6.972;2023-03-03T11:50:30;101705.13;;;7.16;82.18
11710;BME280;5911;51.036;6.972;2023-03-03T11:53:14;101693.16;;;7.10;81.34
11710;BME280;5911;51.036;6.972;2023-03-03T11:55:48;101690.47;;;7.12;80.73
11710;BME280;5911;51.036;6.972;2023-03-03T11:58:23;101685.38;;;7.26;81.73
11710;BME280;5911;51.036;6.972;2023-03-03T12:00:55;101685.06;;;7.32;80.40
11710;BME280;5911;51.036;6.972;2023-03-03T12:03:30;101684.75;;;7.71;78.02
11710;BME280;5911;51.036;6.972;2023-03-03T12:06:14;101681.22;;;8.21;77.36
11710;BME280;5911;51.036;6.972;2023-03-03T12:09:00;101683.19;;;7.84;72.99
11710;BME280;5911;51.036;6.972;2023-03-03T12:11:37;101676.56;;;7.77;74.02
11710;BME280;5911;51.036;6.972;2023-03-03T12:14:19;101677.50;;;8.25;73.07
11710;BME280;5911;51.036;6.972;2023-03-03T12:16:56;101671.88;;;8.15;70.77
11710;BME280;5911;51.036;6.972;2023-03-03T12:19:31;101672.97;;;8.11;71.42
11710;BME280;5911;51.036;6.972;2023-03-03T12:22:24;101673.56;;;8.00;73.14
11710;BME280;5911;51.036;6.972;2023-03-03T12:25:13;101663.56;;;7.91;74.81
11710;BME280;5911;51.036;6.972;2023-03-03T12:27:49;101664.72;;;7.86;76.09
11710;BME280;5911;51.036;6.972;2023-03-03T12:30:28;101627.88;;;7.54;75.53
11710;BME280;5911;51.036;6.972;2023-03-03T12:33:11;101657.66;;;7.70;75.91
11710;BME280;5911;51.036;6.972;2023-03-03T12:35:50;101647.81;;;7.58;75.29
11710;BME280;5911;51.036;6.972;2023-03-03T12:38:29;101650.63;;;7.71;75.35
11710;BME280;5911;51.036;6.972;2023-03-03T12:41:06;101654.97;;;7.88;76.12
11710;BME280;5911;51.036;6.972;2023-03-03T12:43:46;101651.84;;;7.97;75.84
11710;BME280;5911;51.036;6.972;2023-03-03T12:46:22;101655.59;;;7.93;74.23
11710;BME280;5911;51.036;6.972;2023-03-03T12:48:56;101650.50;;;7.90;74.02
11710;BME280;5911;51.036;6.972;2023-03-03T12:51:32;101659.81;;;7.95;73.72
11710;BME280;5911;51.036;6.972;2023-03-03T12:54:17;101653.59;;;7.81;73.50
11710;BME280;5911;51.036;6.972;2023-03-03T12:56:52;101654.22;;;7.86;74.56
11710;BME280;5911;51.036;6.972;2023-03-03T12:59:26;101654.06;;;7.89;74.05
11710;BME280;5911;51.036;6.972;2023-03-03T13:02:12;101652.03;;;8.25;74.81
11710;BME280;5911;51.036;6.972;2023-03-03T13:04:54;101650.00;;;8.15;72.41
11710;BME280;5911;51.036;6.972;2023-03-03T13:07:26;101654.34;;;8.16;73.31
11710;BME280;5911;51.036;6.972;2023-03-03T13:10:06;101647.38;;;7.99;72.74
11710;BME280;5911;51.036;6.972;2023-03-03T13:12:39;101653.91;;;7.92;72.25
11710;BME280;5911;51.036;6.972;2023-03-03T13:15:14;101653.72;;;7.95;72.62
11710;BME280;5911;51.036;6.972;2023-03-03T13:18:12;101657.22;;;8.27;71.08
11710;BME280;5911;51.036;6.972;2023-03-03T13:20:48;101662.75;;;8.69;68.71
11710;BME280;5911;51.036;6.972;2023-03-03T13:23:26;101662.06;;;9.26;68.13
11710;BME280;5911;51.036;6.972;2023-03-03T13:26:03;101661.94;;;9.57;66.31
11710;BME280;5911;51.036;6.972;2023-03-03T13:28:38;101656.50;;;9.74;66.39
11710;BME280;5911;51.036;6.972;2023-03-03T13:31:13;101661.53;;;9.49;64.97
11710;BME280;5911;51.036;6.972;2023-03-03T13:33:46;101661.53;;;9.49;65.76
11710;BME280;5911;51.036;6.972;2023-03-03T13:36:18;101661.34;;;9.66;64.21
11710;BME280;5911;51.036;6.972;2023-03-03T13:38:48;101651.56;;;9.54;64.61
11710;BME280;5911;51.036;6.972;2023-03-03T13:41:20;101654.03;;;9.43;65.14
11710;BME280;5911;51.036;6.972;2023-03-03T13:43:54;101654.19;;;9.40;64.72
11710;BME280;5911;51.036;6.972;2023-03-03T13:46:32;101646.72;;;9.62;64.58